createdAt,value
2019-05-20T00:00:39.962Z,19.7
2019-05-20T00:01:41.275Z,19.7
2019-05-20T00:02:42.918Z,19.5
2019-05-20T00:03:45.781Z,19.4
2019-05-20T00:04:47.116Z,19.4
2019-05-20T00:05:48.536Z,19.4
2019-05-20T00:06:52.772Z,19.4
2019-05-20T00:07:54.038Z,19.3
2019-05-20T00:08:55.651Z,19.2
2019-05-20T00:09:56.978Z,19.3
2019-05-20T00:10:58.244Z,19.2
2019-05-20T00:11:59.514Z,19.2
2019-05-20T00:13:01.073Z,19.2
2019-05-20T00:14:02.626Z,19.1
2019-05-20T00:15:04.286Z,19.1
2019-05-20T00:16:05.554Z,19.3
2019-05-20T00:17:06.860Z,19.2
2019-05-20T00:18:08.155Z,19.2
2019-05-20T00:19:09.638Z,19.3
2019-05-20T00:20:11.034Z,19
2019-05-20T00:21:12.826Z,18.9
2019-05-20T00:22:14.114Z,19
2019-05-20T00:23:15.653Z,19
2019-05-20T00:24:16.954Z,19
2019-05-20T00:25:18.303Z,19.1
2019-05-20T00:26:19.578Z,19.1
2019-05-20T00:27:20.916Z,19
2019-05-20T00:28:22.202Z,19
2019-05-20T00:29:25.162Z,18.7
2019-05-20T00:30:26.506Z,18.6
2019-05-20T00:31:27.893Z,18.6
2019-05-20T00:32:40.520Z,18.6
2019-05-20T00:33:43.388Z,18.7
2019-05-20T00:34:44.680Z,18.6
2019-05-20T00:35:46.294Z,18.4
2019-05-20T00:36:47.852Z,18.5
2019-05-20T00:37:49.147Z,18.5
2019-05-20T00:38:50.424Z,18.4
2019-05-20T00:39:51.824Z,18.4
2019-05-20T00:40:53.168Z,18.6
2019-05-20T00:41:54.456Z,18.7
2019-05-20T00:42:55.736Z,18.5
2019-05-20T00:43:56.988Z,18.3
2019-05-20T00:44:58.278Z,18.5
2019-05-20T00:45:59.600Z,18.4
2019-05-20T00:47:00.876Z,18.4
2019-05-20T00:48:02.213Z,18.8
2019-05-20T00:49:03.511Z,18.8
2019-05-20T00:50:05.151Z,18.8
2019-05-20T00:51:06.660Z,18.7
2019-05-20T00:52:08.246Z,18.7
2019-05-20T00:53:09.509Z,18.6
2019-05-20T00:54:10.790Z,18.5
2019-05-20T00:55:12.064Z,18.5
2019-05-20T00:56:13.450Z,18.6
2019-05-20T00:57:14.721Z,18.4
2019-05-20T00:58:16.029Z,18.4
2019-05-20T00:59:17.326Z,18.2
2019-05-20T01:00:18.606Z,18.4
2019-05-20T01:01:20.031Z,18.5
2019-05-20T01:02:21.314Z,18.4
2019-05-20T01:03:22.618Z,18.5
2019-05-20T01:04:23.899Z,18.5
2019-05-20T01:05:25.174Z,18.3
2019-05-20T01:06:26.840Z,18.3
2019-05-20T01:07:28.208Z,18.5
2019-05-20T01:08:29.496Z,18.3
2019-05-20T01:09:30.796Z,18.4
2019-05-20T01:10:32.099Z,18.4
2019-05-20T01:11:33.432Z,18.4
2019-05-20T01:12:34.751Z,18.3
2019-05-20T01:13:36.068Z,18.2
2019-05-20T01:14:37.370Z,18.3
2019-05-20T01:15:38.782Z,18.4
2019-05-20T01:16:40.122Z,18.5
2019-05-20T01:17:41.509Z,18.5
2019-05-20T01:18:42.800Z,18.4
2019-05-20T01:19:46.327Z,18.5
2019-05-20T01:20:47.652Z,18.6
2019-05-20T01:21:49.252Z,18.5
2019-05-20T01:22:50.538Z,18.4
2019-05-20T01:23:51.832Z,18.2
2019-05-20T01:24:53.390Z,18.3
2019-05-20T01:25:54.667Z,18.4
2019-05-20T01:26:56.370Z,18.4
2019-05-20T01:27:57.668Z,18.4
2019-05-20T01:28:58.932Z,18.4
2019-05-20T01:30:00.213Z,18.4
2019-05-20T01:31:01.518Z,18.3
2019-05-20T01:32:02.835Z,18.2
2019-05-20T01:33:13.104Z,18.4
2019-05-20T01:34:15.441Z,18.3
2019-05-20T01:35:16.832Z,18.2
2019-05-20T01:36:18.102Z,18.2
2019-05-20T01:37:19.676Z,18.3
2019-05-20T01:38:20.988Z,18.3
2019-05-20T01:39:22.269Z,18.2
2019-05-20T01:40:23.680Z,18.1
2019-05-20T01:41:24.952Z,18.2
2019-05-20T01:42:26.309Z,18.1
2019-05-20T01:43:27.844Z,18
2019-05-20T01:44:29.177Z,18
2019-05-20T01:45:30.469Z,17.9
2019-05-20T01:46:31.826Z,17.9
2019-05-20T01:47:33.318Z,17.7
2019-05-20T01:48:34.653Z,17.8
2019-05-20T01:49:35.985Z,17.9
2019-05-20T01:50:37.275Z,17.8
2019-05-20T01:51:38.555Z,17.8
2019-05-20T01:52:40.940Z,17.9
2019-05-20T01:53:42.238Z,17.8
2019-05-20T01:54:44.758Z,18
2019-05-20T01:55:46.437Z,17.8
2019-05-20T01:56:47.727Z,17.8
2019-05-20T01:57:49.697Z,17.9
2019-05-20T01:58:50.988Z,17.9
2019-05-20T01:59:52.262Z,17.7
2019-05-20T02:00:53.573Z,17.8
2019-05-20T02:01:54.919Z,17.9
2019-05-20T02:02:56.256Z,17.9
2019-05-20T02:03:57.555Z,17.8
2019-05-20T02:04:58.881Z,17.7
2019-05-20T02:06:00.151Z,17.8
2019-05-20T02:07:01.440Z,17.7
2019-05-20T02:08:05.918Z,17.6
2019-05-20T02:09:07.324Z,17.6
2019-05-20T02:10:08.598Z,17.9
2019-05-20T02:11:10.256Z,17.9
2019-05-20T02:12:11.567Z,17.7
2019-05-20T02:13:12.906Z,17.7
2019-05-20T02:14:14.179Z,17.6
2019-05-20T02:15:15.486Z,17.5
2019-05-20T02:16:16.752Z,17.3
2019-05-20T02:17:18.066Z,17.3
2019-05-20T02:18:19.369Z,17.5
2019-05-20T02:19:20.730Z,17.6
2019-05-20T02:20:22.019Z,17.7
2019-05-20T02:21:23.294Z,17.6
2019-05-20T02:22:24.576Z,17.5
2019-05-20T02:23:25.949Z,17.4
2019-05-20T02:24:27.242Z,17.2
2019-05-20T02:25:28.499Z,17.5
2019-05-20T02:26:29.797Z,17.6
2019-05-20T02:27:33.303Z,17.6
2019-05-20T02:28:34.627Z,17.7
2019-05-20T02:29:35.912Z,17.6
2019-05-20T02:30:37.262Z,17.7
2019-05-20T02:31:39.836Z,17.5
2019-05-20T02:32:41.115Z,17.6
2019-05-20T02:33:51.395Z,17.6
2019-05-20T02:34:53.913Z,17.6
2019-05-20T02:35:55.293Z,17.6
2019-05-20T02:36:56.645Z,17.7
2019-05-20T02:37:58.211Z,17.6
2019-05-20T02:38:59.507Z,17.6
2019-05-20T02:40:03.683Z,17.5
2019-05-20T02:41:05.019Z,17.6
2019-05-20T02:42:06.291Z,17.6
2019-05-20T02:43:07.577Z,17.5
2019-05-20T02:44:08.941Z,17.6
2019-05-20T02:45:10.207Z,17.5
2019-05-20T02:46:11.474Z,17.4
2019-05-20T02:47:12.827Z,17.4
2019-05-20T02:48:14.111Z,17.6
2019-05-20T02:49:15.415Z,17.5
2019-05-20T02:50:16.707Z,17.4
2019-05-20T02:51:18.211Z,17.5
2019-05-20T02:52:19.487Z,17.4
2019-05-20T02:53:20.778Z,17.2
2019-05-20T02:54:22.083Z,17.3
2019-05-20T02:55:23.353Z,17.4
2019-05-20T02:56:26.944Z,17.4
2019-05-20T02:57:28.219Z,17.3
2019-05-20T02:58:29.527Z,17.5
2019-05-20T02:59:30.851Z,17.5
2019-05-20T03:00:32.357Z,17.4
2019-05-20T03:01:33.687Z,17.2
2019-05-20T03:02:35.013Z,17.2
2019-05-20T03:03:36.317Z,17.3
2019-05-20T03:04:37.951Z,17.4
2019-05-20T03:05:39.237Z,17.4
2019-05-20T03:06:40.515Z,17.4
2019-05-20T03:07:41.769Z,17.4
2019-05-20T03:08:43.052Z,17
2019-05-20T03:09:44.377Z,17
2019-05-20T03:10:45.629Z,17
2019-05-20T03:11:47.001Z,16.9
2019-05-20T03:12:48.289Z,17.1
2019-05-20T03:13:49.550Z,17.3
2019-05-20T03:14:50.897Z,17.3
2019-05-20T03:15:52.254Z,17.2
2019-05-20T03:16:53.533Z,17.2
2019-05-20T03:17:54.837Z,17
2019-05-20T03:18:56.125Z,17.1
2019-05-20T03:19:57.433Z,17.1
2019-05-20T03:20:58.684Z,17.2
2019-05-20T03:22:00.027Z,17.2
2019-05-20T03:23:01.354Z,17.2
2019-05-20T03:24:02.667Z,17.2
2019-05-20T03:25:03.978Z,17.2
2019-05-20T03:26:05.290Z,17
2019-05-20T03:27:06.565Z,17
2019-05-20T03:28:07.854Z,17
2019-05-20T03:29:09.169Z,17
2019-05-20T03:30:10.501Z,16.9
2019-05-20T03:31:11.789Z,17
2019-05-20T03:32:13.083Z,16.9
2019-05-20T03:33:14.399Z,16.8
2019-05-20T03:34:41.391Z,16.9
2019-05-20T03:35:57.745Z,16.8
2019-05-20T03:36:59.405Z,16.9
2019-05-20T03:38:00.700Z,17
2019-05-20T03:39:02.000Z,17.1
2019-05-20T03:40:03.279Z,17.1
2019-05-20T03:41:04.607Z,17
2019-05-20T03:42:05.905Z,16.9
2019-05-20T03:43:07.236Z,17
2019-05-20T03:44:08.541Z,16.9
2019-05-20T03:45:12.189Z,16.8
2019-05-20T03:46:13.562Z,16.9
2019-05-20T03:47:15.330Z,17
2019-05-20T03:48:16.637Z,16.7
2019-05-20T03:49:17.925Z,16.8
2019-05-20T03:50:19.206Z,16.8
2019-05-20T03:51:20.776Z,16.8
2019-05-20T03:52:22.083Z,17
2019-05-20T03:53:23.369Z,16.8
2019-05-20T03:54:24.640Z,16.9
2019-05-20T03:55:25.941Z,16.8
2019-05-20T03:56:27.274Z,16.9
2019-05-20T03:57:32.962Z,16.8
2019-05-20T03:58:34.262Z,16.9
2019-05-20T03:59:35.536Z,16.9
2019-05-20T04:00:36.818Z,16.9
2019-05-20T04:01:38.160Z,16.9
2019-05-20T04:02:39.466Z,17
2019-05-20T04:03:41.746Z,16.9
2019-05-20T04:04:58.898Z,16.9
2019-05-20T04:06:03.859Z,16.7
2019-05-20T04:07:07.713Z,16.8
2019-05-20T04:08:11.162Z,16.8
2019-05-20T04:09:12.447Z,17
2019-05-20T04:10:13.738Z,17.1
2019-05-20T04:11:15.022Z,16.9
2019-05-20T04:12:16.387Z,17
2019-05-20T04:13:17.702Z,17
2019-05-20T04:14:19.219Z,17
2019-05-20T04:15:20.501Z,17.2
2019-05-20T04:16:21.796Z,17.3
2019-05-20T04:17:23.120Z,17.3
2019-05-20T04:18:24.407Z,17
2019-05-20T04:19:25.693Z,17
2019-05-20T04:20:27.015Z,17
2019-05-20T04:21:28.309Z,16.9
2019-05-20T04:22:29.656Z,16.9
2019-05-20T04:23:30.944Z,17.1
2019-05-20T04:24:32.239Z,17
2019-05-20T04:25:33.554Z,17
2019-05-20T04:26:34.837Z,16.9
2019-05-20T04:27:36.170Z,17.1
2019-05-20T04:28:37.813Z,17
2019-05-20T04:29:39.119Z,16.6
2019-05-20T04:30:40.385Z,17
2019-05-20T04:31:41.877Z,17.1
2019-05-20T04:32:43.205Z,17.1
2019-05-20T04:33:44.536Z,17.3
2019-05-20T04:34:45.834Z,17.5
2019-05-20T04:35:49.601Z,17.5
2019-05-20T04:36:51.204Z,17.3
2019-05-20T04:37:52.561Z,17.5
2019-05-20T04:38:54.947Z,17.5
2019-05-20T04:39:56.222Z,17.6
2019-05-20T04:40:57.510Z,17.5
2019-05-20T04:42:00.891Z,17.2
2019-05-20T04:43:02.270Z,17
2019-05-20T04:44:03.547Z,17.1
2019-05-20T04:45:04.844Z,16.9
2019-05-20T04:46:07.969Z,17.4
2019-05-20T04:47:09.284Z,17.4
2019-05-20T04:48:13.624Z,17.3
2019-05-20T04:49:15.370Z,17.2
2019-05-20T04:50:16.659Z,17
2019-05-20T04:51:18.040Z,16.9
2019-05-20T04:52:19.340Z,17.2
2019-05-20T04:53:20.718Z,17.3
2019-05-20T04:54:22.004Z,16.9
2019-05-20T04:55:23.320Z,17
2019-05-20T04:56:26.846Z,17.1
2019-05-20T04:57:30.352Z,17.2
2019-05-20T04:58:31.670Z,17.3
2019-05-20T04:59:32.958Z,17.3
2019-05-20T05:00:34.314Z,17.3
2019-05-20T05:01:36.175Z,17.4
2019-05-20T05:02:37.854Z,17.2
2019-05-20T05:03:44.253Z,17.1
2019-05-20T05:04:46.801Z,17.4
2019-05-20T05:05:48.124Z,17.5
2019-05-20T05:06:49.431Z,17.6
2019-05-20T05:07:50.712Z,17.7
2019-05-20T05:08:52.030Z,17.4
2019-05-20T05:09:53.624Z,17.6
2019-05-20T05:10:54.970Z,17.7
2019-05-20T05:11:56.426Z,18.2
2019-05-20T05:12:57.707Z,18.6
2019-05-20T05:13:59.008Z,18.9
2019-05-20T05:15:00.331Z,19.2
2019-05-20T05:16:04.149Z,19.4
2019-05-20T05:17:05.458Z,19.5
2019-05-20T05:18:06.731Z,19.6
2019-05-20T05:19:08.077Z,19.6
2019-05-20T05:20:17.480Z,19.7
2019-05-20T05:21:19.536Z,19.9
2019-05-20T05:22:20.836Z,19.9
2019-05-20T05:23:22.109Z,20
2019-05-20T05:24:23.422Z,20.2
2019-05-20T05:25:24.702Z,20.3
2019-05-20T05:26:25.999Z,20.3
2019-05-20T05:27:27.298Z,20.3
2019-05-20T05:28:28.596Z,20.3
2019-05-20T05:29:29.923Z,20.4
2019-05-20T05:30:31.246Z,20.4
2019-05-20T05:31:32.558Z,20.5
2019-05-20T05:32:34.258Z,20.5
2019-05-20T05:33:35.559Z,20.6
2019-05-20T05:34:36.927Z,20.6
2019-05-20T05:35:52.175Z,20.7
2019-05-20T05:36:54.972Z,20.8
2019-05-20T05:37:56.295Z,20.8
2019-05-20T05:38:57.907Z,20.9
2019-05-20T05:40:00.418Z,21
2019-05-20T05:41:01.714Z,21.1
2019-05-20T05:42:03.378Z,21.1
2019-05-20T05:43:04.789Z,21.2
2019-05-20T05:44:06.127Z,21.3
2019-05-20T05:45:07.641Z,21.4
2019-05-20T05:46:09.160Z,21.4
2019-05-20T05:47:11.795Z,21.5
2019-05-20T05:48:13.148Z,21.5
2019-05-20T05:49:14.432Z,21.6
2019-05-20T05:50:15.778Z,21.7
2019-05-20T05:51:19.545Z,21.8
2019-05-20T05:52:22.875Z,21.9
2019-05-20T05:53:24.419Z,22
2019-05-20T05:54:25.740Z,22.1
2019-05-20T05:55:27.056Z,22.2
2019-05-20T05:56:28.466Z,22.3
2019-05-20T05:57:29.832Z,22.4
2019-05-20T05:58:31.125Z,22.5
2019-05-20T05:59:32.460Z,22.6
2019-05-20T06:00:34.262Z,22.7
2019-05-20T06:01:35.574Z,22.8
2019-05-20T06:02:36.956Z,22.9
2019-05-20T06:03:38.290Z,22.9
2019-05-20T06:04:39.701Z,23
2019-05-20T06:05:41.117Z,23.1
2019-05-20T06:06:42.423Z,23.2
2019-05-20T06:07:44.303Z,23.2
2019-05-20T06:08:45.605Z,23.3
2019-05-20T06:09:47.305Z,23.4
2019-05-20T06:10:50.187Z,23.5
2019-05-20T06:11:51.476Z,23.5
2019-05-20T06:12:52.767Z,23.6
2019-05-20T06:13:54.063Z,23.7
2019-05-20T06:14:55.369Z,23.7
2019-05-20T06:16:01.063Z,23.8
2019-05-20T06:17:02.373Z,23.9
2019-05-20T06:18:03.767Z,24
2019-05-20T06:19:09.166Z,24
2019-05-20T06:20:10.520Z,24.1
2019-05-20T06:21:14.297Z,24.2
2019-05-20T06:22:19.322Z,24.2
2019-05-20T06:23:20.917Z,24.3
2019-05-20T06:24:22.194Z,24.4
2019-05-20T06:25:23.494Z,24.5
2019-05-20T06:26:26.332Z,24.5
2019-05-20T06:27:30.859Z,24.5
2019-05-20T06:28:32.169Z,24.5
2019-05-20T06:29:33.706Z,24.6
2019-05-20T06:30:34.997Z,24.7
2019-05-20T06:31:36.615Z,24.8
2019-05-20T06:32:38.243Z,24.9
2019-05-20T06:33:39.790Z,25
2019-05-20T06:34:42.838Z,25.1
2019-05-20T06:35:44.502Z,25.1
2019-05-20T06:36:49.860Z,25.2
2019-05-20T06:37:51.109Z,25.3
2019-05-20T06:38:52.608Z,25.4
2019-05-20T06:39:54.064Z,25.4
2019-05-20T06:40:55.373Z,25.5
2019-05-20T06:41:59.816Z,25.5
2019-05-20T06:43:01.195Z,25.6
2019-05-20T06:44:02.651Z,25.7
2019-05-20T06:45:03.933Z,25.7
2019-05-20T06:46:09.075Z,25.8
2019-05-20T06:47:12.597Z,25.9
2019-05-20T06:48:14.100Z,25.9
2019-05-20T06:49:15.394Z,26
2019-05-20T06:50:16.690Z,26.1
2019-05-20T06:51:18.668Z,26.1
2019-05-20T06:52:34.782Z,26.2
2019-05-20T06:53:37.151Z,26.2
2019-05-20T06:54:38.519Z,26.3
2019-05-20T06:55:39.827Z,26.4
2019-05-20T06:56:44.210Z,26.5
2019-05-20T06:57:48.551Z,26.5
2019-05-20T06:58:51.145Z,26.6
2019-05-20T06:59:52.470Z,26.6
2019-05-20T07:00:53.777Z,26.7
2019-05-20T07:01:55.081Z,26.8
2019-05-20T07:02:56.432Z,26.8
2019-05-20T07:03:57.719Z,26.9
2019-05-20T07:04:59.267Z,26.9
2019-05-20T07:06:05.917Z,27
2019-05-20T07:07:19.839Z,27
2019-05-20T07:08:22.325Z,27.1
2019-05-20T07:09:25.833Z,27.2
2019-05-20T07:10:27.121Z,27.2
2019-05-20T07:11:28.655Z,27.2
2019-05-20T07:12:40.415Z,27.3
2019-05-20T07:13:44.913Z,27.4
2019-05-20T07:14:46.205Z,27.4
2019-05-20T07:15:51.507Z,27.5
2019-05-20T07:16:56.153Z,27.5
2019-05-20T07:18:02.328Z,27.6
2019-05-20T07:19:06.323Z,27.7
2019-05-20T07:20:09.677Z,27.7
2019-05-20T07:21:12.888Z,27.8
2019-05-20T07:22:14.250Z,27.8
2019-05-20T07:23:15.737Z,27.9
2019-05-20T07:24:17.097Z,27.9
2019-05-20T07:25:18.492Z,28
2019-05-20T07:26:21.348Z,28
2019-05-20T07:27:22.794Z,28.1
2019-05-20T07:28:24.292Z,28
2019-05-20T07:29:25.649Z,28
2019-05-20T07:30:29.155Z,28
2019-05-20T07:31:30.837Z,28.1
2019-05-20T07:32:34.939Z,28.1
2019-05-20T07:33:36.253Z,28.1
2019-05-20T07:34:39.787Z,28.2
2019-05-20T07:35:43.274Z,28.3
2019-05-20T07:37:00.126Z,28.2
2019-05-20T07:38:04.891Z,28.3
2019-05-20T07:39:06.191Z,28.3
2019-05-20T07:40:07.807Z,28.3
2019-05-20T07:41:09.119Z,28.3
2019-05-20T07:42:10.664Z,28.3
2019-05-20T07:43:14.726Z,28.4
2019-05-20T07:44:16.025Z,28.4
2019-05-20T07:45:17.684Z,28.4
2019-05-20T07:46:18.959Z,28.4
2019-05-20T07:47:20.257Z,28.4
2019-05-20T07:48:21.689Z,28.4
2019-05-20T07:49:25.202Z,28.4
2019-05-20T07:50:27.092Z,28.4
2019-05-20T07:51:28.577Z,28.5
2019-05-20T07:52:32.685Z,28.5
2019-05-20T07:53:34.628Z,28.5
2019-05-20T07:54:38.246Z,28.5
2019-05-20T07:55:39.661Z,28.5
2019-05-20T07:56:41.018Z,28.5
2019-05-20T07:57:42.355Z,28.4
2019-05-20T07:58:43.985Z,28.5
2019-05-20T07:59:45.568Z,28.4
2019-05-20T08:00:47.915Z,28.5
2019-05-20T08:01:49.539Z,28.4
2019-05-20T08:02:51.009Z,28.5
2019-05-20T08:03:52.314Z,28.5
2019-05-20T08:04:53.878Z,28.5
2019-05-20T08:05:55.376Z,28.5
2019-05-20T08:06:56.701Z,28.5
2019-05-20T08:07:58.382Z,28.5
2019-05-20T08:08:59.911Z,28.5
2019-05-20T08:10:01.878Z,28.5
2019-05-20T08:11:03.382Z,28.5
2019-05-20T08:12:04.668Z,28.5
2019-05-20T08:13:05.965Z,28.5
2019-05-20T08:14:10.030Z,28.5
2019-05-20T08:15:11.733Z,28.5
2019-05-20T08:16:13.373Z,28.6
2019-05-20T08:17:14.680Z,28.6
2019-05-20T08:18:20.202Z,28.6
2019-05-20T08:19:21.913Z,28.6
2019-05-20T08:20:25.630Z,28.6
2019-05-20T08:21:29.388Z,28.6
2019-05-20T08:22:30.694Z,28.6
2019-05-20T08:23:32.090Z,28.6
2019-05-20T08:24:33.410Z,28.7
2019-05-20T08:25:34.758Z,28.7
2019-05-20T08:26:36.412Z,28.7
2019-05-20T08:27:42.894Z,28.7
2019-05-20T08:28:44.195Z,28.7
2019-05-20T08:29:45.638Z,28.8
2019-05-20T08:30:46.969Z,28.8
2019-05-20T08:31:55.650Z,28.9
2019-05-20T08:32:58.906Z,28.9
2019-05-20T08:34:01.505Z,29
2019-05-20T08:35:02.859Z,29
2019-05-20T08:36:04.234Z,29.1
2019-05-20T08:37:05.635Z,29.1
2019-05-20T08:38:07.323Z,29.1
2019-05-20T08:39:08.629Z,29.1
2019-05-20T08:40:10.150Z,29.1
2019-05-20T08:41:11.445Z,29.2
2019-05-20T08:42:13.017Z,29.3
2019-05-20T08:43:14.384Z,29.3
2019-05-20T08:44:15.694Z,29.3
2019-05-20T08:45:17.064Z,29.4
2019-05-20T08:46:19.131Z,29.4
2019-05-20T08:47:20.554Z,29.4
2019-05-20T08:48:21.890Z,29.3
2019-05-20T08:49:23.223Z,29.3
2019-05-20T08:50:25.255Z,29.3
2019-05-20T08:51:26.579Z,29.3
2019-05-20T08:52:28.156Z,29.3
2019-05-20T08:53:31.980Z,29.3
2019-05-20T08:54:33.698Z,29.3
2019-05-20T08:55:35.043Z,29.3
2019-05-20T08:56:36.478Z,29.3
2019-05-20T08:57:38.046Z,29.4
2019-05-20T08:58:39.440Z,29.4
2019-05-20T08:59:40.740Z,29.4
2019-05-20T09:00:42.085Z,29.4
2019-05-20T09:01:45.546Z,29.4
2019-05-20T09:02:46.877Z,29.3
2019-05-20T09:03:48.189Z,29.4
2019-05-20T09:04:51.091Z,29.4
2019-05-20T09:05:52.412Z,29.4
2019-05-20T09:06:53.746Z,29.4
2019-05-20T09:08:02.717Z,29.4
2019-05-20T09:09:05.524Z,29.4
2019-05-20T09:10:06.870Z,29.4
2019-05-20T09:11:20.054Z,29.4
2019-05-20T09:12:30.526Z,29.5
2019-05-20T09:13:37.410Z,29.5
2019-05-20T09:14:40.573Z,29.5
2019-05-20T09:15:45.143Z,29.5
2019-05-20T09:16:46.760Z,29.5
2019-05-20T09:17:48.341Z,29.5
2019-05-20T09:18:49.701Z,29.6
2019-05-20T09:19:51.048Z,29.6
2019-05-20T09:20:52.353Z,29.6
2019-05-20T09:21:53.784Z,29.6
2019-05-20T09:23:00.413Z,29.6
2019-05-20T09:24:03.950Z,29.5
2019-05-20T09:25:05.439Z,29.6
2019-05-20T09:26:07.815Z,29.6
2019-05-20T09:27:09.328Z,29.6
2019-05-20T09:28:10.654Z,29.5
2019-05-20T09:29:14.276Z,29.5
2019-05-20T09:30:18.015Z,29.5
2019-05-20T09:31:19.619Z,29.5
2019-05-20T09:32:21.166Z,29.5
2019-05-20T09:33:23.829Z,29.5
2019-05-20T09:34:28.266Z,29.4
2019-05-20T09:35:29.817Z,29.6
2019-05-20T09:36:31.310Z,29.6
2019-05-20T09:37:35.694Z,29.7
2019-05-20T09:38:37.220Z,29.6
2019-05-20T09:39:39.049Z,29.7
2019-05-20T09:40:43.296Z,29.6
2019-05-20T09:41:44.697Z,29.6
2019-05-20T09:42:49.342Z,29.6
2019-05-20T09:43:55.499Z,29.6
2019-05-20T09:45:03.019Z,29.7
2019-05-20T09:46:10.712Z,29.7
2019-05-20T09:47:12.296Z,29.6
2019-05-20T09:48:16.747Z,29.6
2019-05-20T09:49:20.730Z,29.7
2019-05-20T09:50:22.410Z,29.7
2019-05-20T09:51:24.526Z,29.7
2019-05-20T09:52:31.337Z,29.6
2019-05-20T09:53:34.450Z,29.6
2019-05-20T09:54:37.337Z,29.7
2019-05-20T09:55:50.100Z,29.7
2019-05-20T09:56:52.596Z,29.7
2019-05-20T09:57:55.528Z,29.7
2019-05-20T09:58:57.166Z,29.7
2019-05-20T10:00:02.252Z,29.7
2019-05-20T10:01:10.388Z,29.7
2019-05-20T10:02:12.350Z,29.7
2019-05-20T10:03:18.290Z,29.7
2019-05-20T10:04:20.149Z,29.7
2019-05-20T10:05:21.713Z,29.7
2019-05-20T10:06:25.245Z,29.7
2019-05-20T10:07:28.128Z,29.7
2019-05-20T10:08:37.868Z,29.7
2019-05-20T10:09:46.310Z,29.7
2019-05-20T10:10:50.750Z,29.7
2019-05-20T10:11:52.680Z,29.7
2019-05-20T10:12:54.343Z,29.7
2019-05-20T10:14:03.276Z,29.7
2019-05-20T10:15:04.998Z,29.6
2019-05-20T10:16:10.608Z,29.7
2019-05-20T10:17:12.298Z,29.7
2019-05-20T10:18:13.817Z,29.6
2019-05-20T10:19:15.649Z,29.6
2019-05-20T10:20:17.292Z,29.6
2019-05-20T10:21:18.649Z,29.7
2019-05-20T10:22:20.572Z,29.7
2019-05-20T10:23:25.708Z,29.7
2019-05-20T10:24:27.336Z,29.7
2019-05-20T10:25:28.959Z,29.6
2019-05-20T10:26:30.461Z,29.7
2019-05-20T10:27:32.404Z,29.6
2019-05-20T10:28:34.278Z,29.6
2019-05-20T10:29:35.604Z,29.6
2019-05-20T10:30:36.920Z,29.6
2019-05-20T10:31:40.700Z,29.6
2019-05-20T10:32:42.357Z,29.6
2019-05-20T10:33:48.122Z,29.6
2019-05-20T10:34:49.723Z,29.6
2019-05-20T10:35:51.072Z,29.6
2019-05-20T10:36:55.969Z,29.6
2019-05-20T10:37:58.374Z,29.6
2019-05-20T10:38:59.765Z,29.6
2019-05-20T10:40:21.319Z,29.6
2019-05-20T10:41:22.652Z,29.6
2019-05-20T10:42:30.022Z,29.6
2019-05-20T10:43:34.125Z,29.6
2019-05-20T10:44:35.804Z,29.6
2019-05-20T10:45:37.317Z,29.6
2019-05-20T10:46:38.682Z,29.6
2019-05-20T10:47:43.218Z,29.6
2019-05-20T10:48:47.238Z,29.6
2019-05-20T10:49:48.793Z,29.6
2019-05-20T10:50:50.130Z,29.6
2019-05-20T10:51:51.479Z,29.6
2019-05-20T10:52:57.248Z,29.6
2019-05-20T10:53:58.666Z,29.6
2019-05-20T10:55:00.217Z,29.5
2019-05-20T10:56:03.408Z,29.6
2019-05-20T10:57:04.813Z,29.6
2019-05-20T10:58:06.120Z,29.5
2019-05-20T10:59:11.849Z,29.6
2019-05-20T11:00:14.996Z,29.6
2019-05-20T11:01:16.287Z,29.6
2019-05-20T11:02:19.663Z,29.6
2019-05-20T11:03:23.510Z,29.6
2019-05-20T11:04:24.855Z,29.6
2019-05-20T11:05:28.952Z,29.6
2019-05-20T11:06:30.258Z,29.6
2019-05-20T11:07:31.588Z,29.6
2019-05-20T11:08:32.907Z,29.6
2019-05-20T11:09:35.367Z,29.5
2019-05-20T11:10:38.581Z,29.5
2019-05-20T11:11:41.221Z,29.5
2019-05-20T11:12:42.788Z,29.5
2019-05-20T11:13:47.057Z,29.5
2019-05-20T11:14:48.444Z,29.5
2019-05-20T11:15:50.185Z,29.5
2019-05-20T11:16:52.091Z,29.5
2019-05-20T11:17:53.433Z,29.5
2019-05-20T11:18:55.305Z,29.5
2019-05-20T11:20:00.987Z,29.5
2019-05-20T11:21:02.319Z,29.5
2019-05-20T11:22:06.672Z,29.5
2019-05-20T11:23:09.613Z,29.5
2019-05-20T11:24:11.336Z,29.5
2019-05-20T11:25:19.323Z,29.4
2019-05-20T11:26:20.912Z,29.4
2019-05-20T11:27:22.246Z,29.5
2019-05-20T11:28:24.767Z,29.5
2019-05-20T11:29:26.560Z,29.5
2019-05-20T11:30:31.337Z,29.5
2019-05-20T11:31:32.706Z,29.5
2019-05-20T11:32:34.346Z,29.5
2019-05-20T11:33:35.662Z,29.5
2019-05-20T11:34:37.362Z,29.4
2019-05-20T11:35:39.071Z,29.3
2019-05-20T11:36:40.799Z,29.4
2019-05-20T11:37:42.485Z,29.5
2019-05-20T11:38:43.789Z,29.4
2019-05-20T11:39:45.557Z,29.4
2019-05-20T11:40:46.911Z,29.4
2019-05-20T11:41:53.157Z,29.4
2019-05-20T11:42:58.233Z,29.3
2019-05-20T11:44:00.820Z,29.4
2019-05-20T11:45:02.134Z,29.4
2019-05-20T11:46:05.615Z,29.4
2019-05-20T11:47:06.957Z,29.4
2019-05-20T11:48:11.060Z,29.4
2019-05-20T11:49:14.086Z,29.4
2019-05-20T11:50:15.992Z,29.3
2019-05-20T11:51:17.786Z,29.2
2019-05-20T11:52:19.453Z,29.2
2019-05-20T11:53:22.075Z,29.2
2019-05-20T11:54:23.410Z,29.3
2019-05-20T11:55:24.761Z,29.2
2019-05-20T11:56:26.647Z,29.2
2019-05-20T11:57:29.292Z,29.3
2019-05-20T11:58:30.764Z,29.3
2019-05-20T11:59:32.557Z,29.3
2019-05-20T12:00:41.178Z,29.2
2019-05-20T12:01:45.703Z,29.3
2019-05-20T12:02:47.285Z,29.2
2019-05-20T12:03:48.614Z,29.2
2019-05-20T12:04:49.953Z,29.2
2019-05-20T12:05:51.275Z,29.2
2019-05-20T12:06:54.953Z,29.2
2019-05-20T12:07:58.608Z,29.2
2019-05-20T12:08:59.934Z,29.2
2019-05-20T12:10:01.222Z,29.2
2019-05-20T12:11:02.533Z,29.2
2019-05-20T12:12:11.097Z,29.2
2019-05-20T12:13:12.421Z,29.1
2019-05-20T12:14:13.967Z,29.2
2019-05-20T12:15:15.308Z,29.2
2019-05-20T12:16:16.850Z,29.2
2019-05-20T12:17:18.317Z,29.2
2019-05-20T12:18:19.970Z,29.2
2019-05-20T12:19:21.237Z,29.2
2019-05-20T12:20:24.607Z,29.2
2019-05-20T12:21:28.162Z,29.2
2019-05-20T12:22:29.544Z,29.2
2019-05-20T12:23:30.858Z,29.2
2019-05-20T12:24:34.621Z,29.1
2019-05-20T12:25:38.439Z,29.1
2019-05-20T12:26:39.870Z,29.1
2019-05-20T12:27:41.219Z,29.1
2019-05-20T12:28:42.513Z,29.1
2019-05-20T12:29:44.227Z,29.1
2019-05-20T12:30:45.519Z,29.1
2019-05-20T12:31:48.814Z,29.1
2019-05-20T12:32:50.412Z,29
2019-05-20T12:34:21.019Z,29
2019-05-20T12:35:22.414Z,29
2019-05-20T12:36:26.173Z,29
2019-05-20T12:37:27.470Z,29
2019-05-20T12:38:31.157Z,29
2019-05-20T12:39:32.491Z,29
2019-05-20T12:40:34.005Z,29
2019-05-20T12:41:35.779Z,29
2019-05-20T12:42:37.655Z,29
2019-05-20T12:43:39.258Z,29
2019-05-20T12:44:40.978Z,29
2019-05-20T12:45:42.249Z,28.9
2019-05-20T12:46:53.785Z,28.9
2019-05-20T12:47:55.311Z,28.9
2019-05-20T12:48:56.713Z,28.9
2019-05-20T12:49:58.373Z,28.9
2019-05-20T12:51:02.182Z,28.8
2019-05-20T12:52:03.511Z,28.8
2019-05-20T12:53:04.828Z,28.8
2019-05-20T12:54:09.275Z,28.8
2019-05-20T12:55:10.709Z,28.8
2019-05-20T12:56:12.636Z,28.8
2019-05-20T12:57:14.212Z,28.8
2019-05-20T12:58:16.014Z,28.7
2019-05-20T12:59:22.541Z,28.8
2019-05-20T13:00:23.891Z,28.7
2019-05-20T13:01:25.250Z,28.7
2019-05-20T13:02:27.556Z,28.7
2019-05-20T13:03:30.237Z,28.7
2019-05-20T13:04:31.791Z,28.7
2019-05-20T13:05:33.114Z,28.7
2019-05-20T13:06:34.436Z,28.7
2019-05-20T13:07:35.802Z,28.6
2019-05-20T13:08:37.284Z,28.6
2019-05-20T13:09:41.732Z,28.6
2019-05-20T13:10:47.489Z,28.6
2019-05-20T13:11:48.808Z,28.6
2019-05-20T13:12:50.126Z,28.6
2019-05-20T13:14:02.322Z,28.6
2019-05-20T13:15:05.866Z,28.5
2019-05-20T13:16:07.495Z,28.5
2019-05-20T13:17:10.199Z,28.5
2019-05-20T13:18:20.456Z,28.5
2019-05-20T13:19:22.286Z,28.5
2019-05-20T13:20:31.474Z,28.5
2019-05-20T13:21:33.024Z,28.5
2019-05-20T13:22:34.330Z,28.5
2019-05-20T13:23:41.536Z,28.5
2019-05-20T13:24:42.872Z,28.5
2019-05-20T13:25:44.234Z,28.5
2019-05-20T13:26:45.714Z,28.5
2019-05-20T13:27:50.731Z,28.5
2019-05-20T13:28:53.641Z,28.5
2019-05-20T13:29:54.947Z,28.4
2019-05-20T13:30:56.595Z,28.4
2019-05-20T13:31:57.915Z,28.4
2019-05-20T13:32:59.345Z,28.4
2019-05-20T13:34:03.834Z,28.4
2019-05-20T13:35:07.646Z,28.4
2019-05-20T13:36:12.765Z,28.4
2019-05-20T13:37:20.717Z,28.4
2019-05-20T13:38:22.162Z,28.4
2019-05-20T13:39:23.462Z,28.4
2019-05-20T13:40:24.776Z,28.4
2019-05-20T13:41:26.157Z,28.3
2019-05-20T13:42:27.492Z,28.3
2019-05-20T13:43:28.792Z,28.3
2019-05-20T13:44:30.449Z,28.3
2019-05-20T13:45:35.866Z,28.3
2019-05-20T13:46:40.736Z,28.4
2019-05-20T13:47:42.062Z,28.4
2019-05-20T13:48:43.367Z,28.3
2019-05-20T13:49:44.686Z,28.3
2019-05-20T13:50:46.040Z,28.3
2019-05-20T13:51:53.124Z,28.3
2019-05-20T13:52:57.033Z,28.3
2019-05-20T13:54:06.483Z,28.3
2019-05-20T13:55:09.197Z,28.3